Time;durP1;ratioP1;P1;durP2;ratioP2;P2;SDS_P1;SDS_P2;PMS_P1;PMS_P2;Temp;Humidity;BMP_temperature;BMP_pressure;BME280_temperature;BME280_humidity;BME280_pressure;Samples;Min_cycle;Max_cycle;Signal;HPM_P1;HPM_P2
2022/09/13 00:02:11;;;;;;;2.47;0.50;;;;;;;12.78;62.17;100440.22;4952564;27;98017;-64
2022/09/13 00:04:37;;;;;;;1.48;0.57;;;;;;;12.77;62.07;100435.09;4978935;27;99403;-64
2022/09/13 00:07:04;;;;;;;1.10;0.45;;;;;;;12.78;61.98;100426.72;4951877;27;98122;-64
2022/09/13 00:09:31;;;;;;;1.20;0.60;;;;;;;12.76;62.15;100423.47;4974029;27;103216;-71
2022/09/13 00:11:58;;;;;;;1.83;0.45;;;;;;;12.76;62.02;100417.25;4985437;27;98045;-72
2022/09/13 00:14:25;;;;;;;1.38;0.55;;;;;;;12.71;61.90;100412.69;4962185;27;98316;-64
2022/09/13 00:16:53;;;;;;;1.67;0.47;;;;;;;12.67;61.95;100403.53;4981281;27;98002;-71
2022/09/13 00:19:20;;;;;;;2.95;0.57;;;;;;;12.67;62.10;100405.44;4961107;27;98134;-71
2022/09/13 00:21:47;;;;;;;2.45;0.50;;;;;;;12.64;62.30;100404.09;4945643;27;98048;-64
2022/09/13 00:24:13;;;;;;;2.28;0.55;;;;;;;12.64;62.22;100400.59;4944278;27;98454;-64
2022/09/13 00:26:41;;;;;;;1.02;0.43;;;;;;;12.64;62.27;100406.00;4987590;27;113264;-71
2022/09/13 00:29:07;;;;;;;1.10;0.60;;;;;;;12.62;62.09;100394.66;4985881;27;98200;-71
2022/09/13 00:31:34;;;;;;;1.92;0.68;;;;;;;12.62;61.98;100387.34;4985100;27;98331;-64
2022/09/13 00:34:00;;;;;;;2.28;0.73;;;;;;;12.61;62.16;100384.91;4987675;27;98365;-64
2022/09/13 00:36:27;;;;;;;1.05;0.40;;;;;;;12.58;62.50;100390.91;4961188;27;98306;-71
2022/09/13 00:38:54;;;;;;;1.08;0.40;;;;;;;12.54;61.95;100387.97;4986432;27;98055;-64
2022/09/13 00:41:20;;;;;;;1.15;0.47;;;;;;;12.50;62.05;100384.22;4977025;27;97816;-72
2022/09/13 00:44:00;;;;;;;1.02;0.40;;;;;;;12.49;62.11;100382.56;4959700;27;99346;-71
2022/09/13 00:46:43;;;;;;;1.25;0.50;;;;;;;12.51;61.91;100378.50;4987432;27;98002;-64
2022/09/13 00:49:19;;;;;;;0.95;0.40;;;;;;;12.56;62.29;100379.56;4947427;27;99621;-71
2022/09/13 00:51:52;;;;;;;1.13;0.50;;;;;;;12.60;62.35;100372.50;4980640;27;97901;-64
2022/09/13 00:54:20;;;;;;;1.40;0.57;;;;;;;12.63;62.24;100363.81;4978118;27;98545;-71
2022/09/13 00:56:51;;;;;;;0.70;0.30;;;;;;;12.64;61.90;100371.63;4977355;27;98593;-64
2022/09/13 00:59:30;;;;;;;1.08;0.55;;;;;;;12.67;61.86;100362.16;4985161;27;99012;-71
2022/09/13 01:01:56;;;;;;;1.92;0.30;;;;;;;12.68;62.09;100361.88;4965810;27;98192;-71
2022/09/13 01:04:27;;;;;;;1.00;0.30;;;;;;;12.69;61.94;100352.69;4967105;27;97971;-68
2022/09/13 01:06:57;;;;;;;1.00;0.40;;;;;;;12.70;62.14;100348.09;4934403;27;98160;-72
2022/09/13 01:09:23;;;;;;;0.98;0.40;;;;;;;12.71;61.96;100346.97;4931344;27;97996;-72
2022/09/13 01:12:31;;;;;;;0.90;0.40;;;;;;;12.71;61.87;100350.50;4984651;27;97931;-64
2022/09/13 01:15:00;;;;;;;1.13;0.30;;;;;;;12.72;61.91;100345.88;4983376;27;97951;-72
2022/09/13 01:17:28;;;;;;;2.75;0.30;;;;;;;12.72;62.04;100345.88;4983917;27;98155;-72
2022/09/13 01:19:54;;;;;;;2.53;0.50;;;;;;;12.70;62.21;100332.66;4964775;27;99431;-72
2022/09/13 01:23:10;;;;;;;1.25;0.40;;;;;;;12.70;61.67;100331.84;4983885;27;98069;-72
2022/09/13 01:26:24;;;;;;;1.00;0.30;;;;;;;12.67;61.66;100324.31;4995892;27;98145;-65
2022/09/13 01:29:50;;;;;;;0.77;0.40;;;;;;;12.65;61.50;100316.47;4987102;27;98103;-72
2022/09/13 01:33:09;;;;;;;3.55;0.40;;;;;;;12.61;61.49;100311.91;4960421;27;98247;-72
2022/09/13 01:36:19;;;;;;;0.95;0.40;;;;;;;12.54;61.65;100301.44;4963564;27;98070;-72
2022/09/13 01:39:18;;;;;;;0.95;0.30;;;;;;;12.45;61.73;100298.53;4985995;27;98302;-72
2022/09/13 01:42:11;;;;;;;0.77;0.30;;;;;;;12.43;62.09;100291.81;4965560;27;98293;-72
2022/09/13 01:44:46;;;;;;;1.45;0.50;;;;;;;12.40;61.72;100284.25;5000103;27;97886;-72
2022/09/13 01:47:55;;;;;;;0.95;0.32;;;;;;;12.33;61.65;100278.38;4998691;27;97844;-65
2022/09/13 01:50:46;;;;;;;1.02;0.32;;;;;;;12.26;61.68;100273.28;4953670;27;99599;-72
2022/09/13 01:53:57;;;;;;;1.00;0.40;;;;;;;12.19;61.82;100267.41;4957426;27;100050;-65
2022/09/13 01:56:33;;;;;;;1.08;0.40;;;;;;;12.16;61.85;100278.78;4954324;27;98007;-72
2022/09/13 01:59:21;;;;;;;2.45;0.30;;;;;;;12.14;62.39;100275.53;4969723;27;98238;-64
2022/09/13 02:02:00;;;;;;;0.88;0.40;;;;;;;12.10;62.18;100283.41;4953409;27;98297;-65
2022/09/13 02:04:35;;;;;;;1.27;0.50;;;;;;;12.13;62.15;100284.75;4962270;27;98110;-65
2022/09/13 02:07:34;;;;;;;1.00;0.38;;;;;;;12.13;62.00;100274.72;4983406;27;97893;-71
2022/09/13 02:10:27;;;;;;;1.30;0.30;;;;;;;12.13;62.08;100284.75;4934754;27;98226;-65
2022/09/13 02:12:55;;;;;;;1.73;0.55;;;;;;;12.15;62.07;100287.97;4953419;27;98880;-65
2022/09/13 02:15:42;;;;;;;1.83;0.50;;;;;;;12.14;61.79;100281.75;4941006;27;98424;-72
2022/09/13 02:18:14;;;;;;;1.42;0.40;;;;;;;12.16;62.00;100287.69;4955143;27;98040;-65
2022/09/13 02:20:43;;;;;;;0.80;0.32;;;;;;;12.13;62.30;100287.44;4980129;27;97894;-65
2022/09/13 02:23:53;;;;;;;1.13;0.40;;;;;;;12.12;61.76;100280.44;4956783;27;98599;-71
2022/09/13 02:26:22;;;;;;;0.77;0.32;;;;;;;12.10;62.18;100278.00;4929407;27;105247;-73
2022/09/13 02:28:54;;;;;;;1.08;0.30;;;;;;;12.08;61.95;100272.06;4956333;27;98802;-71
2022/09/13 02:32:04;;;;;;;0.90;0.30;;;;;;;12.07;61.83;100264.25;4923650;28;98045;-72
2022/09/13 02:34:42;;;;;;;4.40;0.40;;;;;;;12.04;61.97;100266.44;4948013;27;108159;-65
2022/09/13 02:37:08;;;;;;;1.17;0.30;;;;;;;12.01;62.19;100269.69;4923320;27;98231;-65
2022/09/13 02:39:39;;;;;;;1.38;0.50;;;;;;;11.97;62.11;100265.94;4957047;27;99918;-71
2022/09/13 02:42:18;;;;;;;1.30;0.40;;;;;;;11.97;62.03;100271.34;4930740;27;98863;-64
2022/09/13 02:44:48;;;;;;;1.70;0.47;;;;;;;11.94;62.10;100271.88;4949097;27;97966;-65
2022/09/13 02:47:58;;;;;;;2.55;0.47;;;;;;;11.92;61.82;100265.19;4939209;27;98255;-72
2022/09/13 02:50:30;;;;;;;0.90;0.30;;;;;;;11.87;62.25;100266.03;4956632;27;98220;-65
2022/09/13 02:53:30;;;;;;;1.10;0.40;;;;;;;11.89;61.89;100269.22;4966044;27;97984;-72
2022/09/13 02:56:26;;;;;;;1.20;0.40;;;;;;;11.86;61.80;100267.09;4980379;27;97932;-72
2022/09/13 02:59:15;;;;;;;1.05;0.40;;;;;;;11.86;62.00;100261.69;4946715;27;114446;-72
2022/09/13 03:02:04;;;;;;;1.58;0.40;;;;;;;11.85;62.14;100262.78;4950071;27;97851;-64
2022/09/13 03:04:33;;;;;;;2.17;0.40;;;;;;;11.84;62.27;100254.97;4985784;27;98325;-71
2022/09/13 03:07:00;;;;;;;1.15;0.43;;;;;;;11.82;62.21;100246.31;4958563;27;99975;-64
2022/09/13 03:09:26;;;;;;;1.13;0.30;;;;;;;11.77;62.20;100239.84;4967453;27;97961;-64
2022/09/13 03:12:21;;;;;;;1.70;0.30;;;;;;;11.76;62.16;100238.25;4974797;27;100983;-65
2022/09/13 03:15:17;;;;;;;1.23;0.40;;;;;;;11.70;61.85;100228.53;5001482;27;97979;-72
2022/09/13 03:18:10;;;;;;;1.23;0.40;;;;;;;11.68;62.02;100222.63;4984897;27;98064;-64
2022/09/13 03:20:58;;;;;;;4.82;0.50;;;;;;;11.67;62.18;100220.19;4983643;27;97998;-65
2022/09/13 03:23:46;;;;;;;1.10;0.40;;;;;;;11.64;62.19;100218.09;4999755;27;98017;-72
2022/09/13 03:26:41;;;;;;;2.13;0.30;;;;;;;11.58;61.86;100216.50;4980652;27;97879;-64
2022/09/13 03:29:45;;;;;;;1.25;0.32;;;;;;;11.52;62.17;100215.72;4982041;27;97934;-64
2022/09/13 03:32:17;;;;;;;1.58;0.60;;;;;;;11.47;62.01;100216.53;4988351;27;98213;-71
2022/09/13 03:35:52;;;;;;;4.00;0.43;;;;;;;11.45;62.04;100221.44;4981633;27;98035;-71
2022/09/13 03:38:25;;;;;;;1.23;0.60;;;;;;;11.45;62.26;100212.53;4975050;27;98276;-64
2022/09/13 03:41:10;;;;;;;3.72;0.57;;;;;;;11.47;61.91;100213.84;4947611;27;114206;-64
2022/09/13 03:43:49;;;;;;;1.88;0.50;;;;;;;11.50;62.27;100212.47;4987736;27;100130;-71
2022/09/13 03:46:34;;;;;;;1.00;0.35;;;;;;;11.51;62.24;100214.94;4983755;27;98354;-65
2022/09/13 03:49:09;;;;;;;1.30;0.50;;;;;;;11.51;62.08;100214.94;4949921;27;98230;-64
2022/09/13 03:51:36;;;;;;;2.35;0.63;;;;;;;11.52;62.30;100213.81;4955690;27;98347;-72
2022/09/13 03:54:07;;;;;;;1.45;0.43;;;;;;;11.51;62.42;100214.94;4959990;27;98392;-72
2022/09/13 03:56:33;;;;;;;1.77;0.52;;;;;;;11.49;62.44;100208.97;4976279;27;97989;-65
2022/09/13 03:58:59;;;;;;;1.70;0.60;;;;;;;11.48;62.44;100204.69;4961187;27;112281;-71
2022/09/13 04:01:27;;;;;;;1.88;0.50;;;;;;;11.46;62.42;100212.22;4950872;27;98297;-71
2022/09/13 04:03:53;;;;;;;1.25;0.55;;;;;;;11.45;62.58;100202.53;4978048;27;99579;-64
2022/09/13 04:06:20;;;;;;;2.17;0.40;;;;;;;11.44;62.50;100202.81;4972441;27;97818;-72
2022/09/13 04:08:47;;;;;;;1.35;0.40;;;;;;;11.43;62.77;100204.69;4973432;27;98000;-71
2022/09/13 04:11:13;;;;;;;1.95;0.57;;;;;;;11.44;62.93;100203.63;4947244;27;97943;-71
2022/09/13 04:13:45;;;;;;;1.13;0.47;;;;;;;11.43;62.62;100206.59;4979295;27;98380;-71
2022/09/13 04:16:12;;;;;;;1.15;0.50;;;;;;;11.42;62.43;100207.69;4963371;27;98078;-72
2022/09/13 04:18:38;;;;;;;1.35;0.65;;;;;;;11.42;62.43;100207.69;4969612;27;98113;-64
2022/09/13 04:21:04;;;;;;;1.33;0.40;;;;;;;11.41;62.55;100193.38;4970983;27;98123;-65
2022/09/13 04:23:31;;;;;;;0.95;0.40;;;;;;;11.39;62.69;100192.84;4945412;27;98193;-64
2022/09/13 04:26:06;;;;;;;1.63;0.75;;;;;;;11.36;62.33;100181.78;4965471;27;119604;-65
2022/09/13 04:28:32;;;;;;;1.95;0.60;;;;;;;11.33;62.83;100185.88;4963835;27;98038;-71
2022/09/13 04:31:00;;;;;;;1.23;0.43;;;;;;;11.31;62.72;100191.53;4972353;27;97913;-72
2022/09/13 04:33:26;;;;;;;1.00;0.32;;;;;;;11.31;62.51;100198.81;4965402;27;99112;-72
2022/09/13 04:36:00;;;;;;;1.27;0.57;;;;;;;11.30;62.11;100195.31;4971274;27;99160;-65
2022/09/13 04:38:26;;;;;;;1.25;0.45;;;;;;;11.31;62.72;100196.13;4959727;27;98105;-65
2022/09/13 04:40:56;;;;;;;2.92;0.40;;;;;;;11.29;62.44;100192.91;4988348;27;99691;-65
2022/09/13 04:43:23;;;;;;;1.88;0.50;;;;;;;11.29;62.82;100198.31;4964097;27;98435;-64
2022/09/13 04:45:49;;;;;;;1.98;0.50;;;;;;;11.28;62.69;100191.31;4974757;27;97841;-65
2022/09/13 04:48:15;;;;;;;2.33;0.60;;;;;;;11.28;62.82;100191.31;4988609;27;98306;-64
2022/09/13 04:50:42;;;;;;;1.25;0.43;;;;;;;11.28;62.54;100191.31;4950337;27;98040;-65
2022/09/13 04:53:09;;;;;;;2.35;0.63;;;;;;;11.27;62.93;100185.06;4955047;27;98390;-65
2022/09/13 04:55:47;;;;;;;1.50;0.60;;;;;;;11.28;62.30;100180.50;4966587;27;98527;-71
2022/09/13 04:58:19;;;;;;;1.83;0.57;;;;;;;11.28;62.82;100185.91;4979905;27;98159;-72
2022/09/13 05:00:46;;;;;;;1.02;0.65;;;;;;;11.28;62.70;100183.22;4973806;27;98179;-71
2022/09/13 05:03:12;;;;;;;1.42;0.60;;;;;;;11.31;62.51;100188.84;4969728;27;99965;-71
2022/09/13 05:05:39;;;;;;;1.48;0.52;;;;;;;11.34;62.64;100174.00;4969180;27;97935;-65
2022/09/13 05:08:06;;;;;;;1.60;0.40;;;;;;;11.38;62.25;100179.63;4985828;27;98822;-65
2022/09/13 05:10:32;;;;;;;1.77;0.65;;;;;;;11.38;62.46;100177.75;4974347;27;99840;-71
2022/09/13 05:13:00;;;;;;;1.48;0.50;;;;;;;11.42;62.67;100176.09;4954527;27;99563;-71
2022/09/13 05:15:26;;;;;;;3.67;0.60;;;;;;;11.45;62.72;100172.03;4974097;27;97802;-72
2022/09/13 05:17:53;;;;;;;1.23;0.47;;;;;;;11.53;62.63;100182.25;4989943;27;98172;-71
2022/09/13 05:20:20;;;;;;;3.13;0.65;;;;;;;11.64;62.65;100185.69;4953253;27;98027;-71
2022/09/13 05:22:46;;;;;;;1.33;0.73;;;;;;;11.75;62.22;100181.78;4966323;27;100677;-71
2022/09/13 05:25:13;;;;;;;1.52;0.73;;;;;;;11.87;62.38;100187.69;4953356;27;98066;-71
2022/09/13 05:27:40;;;;;;;2.78;0.98;;;;;;;11.98;62.44;100177.59;4964967;27;97979;-72
2022/09/13 05:30:07;;;;;;;1.92;0.80;;;;;;;12.09;62.44;100176.44;4979118;27;98003;-72
2022/09/13 05:32:36;;;;;;;4.22;0.77;;;;;;;12.18;62.15;100174.75;4982575;27;97996;-71
2022/09/13 05:35:03;;;;;;;2.25;0.90;;;;;;;12.28;62.20;100163.81;4974554;27;99038;-72
2022/09/13 05:37:30;;;;;;;2.47;0.80;;;;;;;12.33;62.38;100162.16;4968793;27;97851;-72
2022/09/13 05:39:57;;;;;;;1.38;0.60;;;;;;;12.36;62.31;100161.59;4985022;27;98461;-72
2022/09/13 05:42:24;;;;;;;2.28;0.90;;;;;;;12.37;62.78;100161.28;4985622;27;99385;-72
2022/09/13 05:44:52;;;;;;;2.17;0.80;;;;;;;12.39;62.61;100158.31;4952789;27;98555;-72
2022/09/13 05:47:18;;;;;;;1.70;0.90;;;;;;;12.38;62.64;100151.28;4962886;27;98730;-72
2022/09/13 05:49:45;;;;;;;1.85;1.05;;;;;;;12.40;62.98;100154.50;4966653;27;98171;-72
2022/09/13 05:52:14;;;;;;;4.03;1.05;;;;;;;12.42;62.80;100146.94;4969260;27;99447;-72
2022/09/13 05:54:40;;;;;;;2.90;1.00;;;;;;;12.47;62.86;100152.28;4954046;27;98247;-72
2022/09/13 05:57:07;;;;;;;3.75;1.00;;;;;;;12.57;62.44;100144.03;4973046;27;97847;-72
2022/09/13 05:59:34;;;;;;;2.25;1.10;;;;;;;12.78;62.16;100142.72;4998654;27;98465;-72
2022/09/13 06:02:01;;;;;;;4.18;1.25;;;;;;;12.98;62.08;100133.53;4968813;27;97796;-72
2022/09/13 06:04:28;;;;;;;2.38;1.00;;;;;;;13.15;62.16;100129.50;4956280;27;99438;-72
2022/09/13 06:06:55;;;;;;;2.28;1.10;;;;;;;13.36;61.89;100132.75;4963526;27;97633;-72
2022/09/13 06:09:22;;;;;;;2.08;0.82;;;;;;;13.55;61.92;100122.72;4982617;27;99502;-65
2022/09/13 06:11:49;;;;;;;2.58;0.95;;;;;;;13.69;61.91;100129.00;4950445;27;98504;-65
2022/09/13 06:14:16;;;;;;;1.88;0.80;;;;;;;13.81;61.77;100131.22;4984971;27;97887;-65
2022/09/13 06:16:42;;;;;;;1.95;1.08;;;;;;;13.89;62.16;100138.69;4985106;27;98532;-66
2022/09/13 06:19:09;;;;;;;1.92;0.85;;;;;;;13.95;62.25;100137.50;4960634;27;97863;-65
2022/09/13 06:21:35;;;;;;;2.40;1.05;;;;;;;14.01;62.35;100140.91;4963989;27;98397;-65
2022/09/13 06:24:03;;;;;;;1.50;0.73;;;;;;;14.08;62.75;100135.91;4953630;27;99203;-65
2022/09/13 06:26:30;;;;;;;1.95;0.85;;;;;;;14.16;62.66;100142.56;4955505;27;98365;-65
2022/09/13 06:28:58;;;;;;;2.72;1.05;;;;;;;14.27;62.11;100135.06;4964194;27;98094;-65
2022/09/13 06:31:26;;;;;;;2.53;1.25;;;;;;;14.42;61.95;100132.84;4968372;27;98512;-65
2022/09/13 06:33:59;;;;;;;2.17;0.85;;;;;;;14.59;62.10;100131.47;4949250;27;98008;-65
2022/09/13 06:36:25;;;;;;;;;;;;;;;14.76;61.05;100128.94;4963450;27;97984;-66
2022/09/13 06:38:54;;;;;;;1.80;0.90;;;;;;;14.78;61.87;100124.03;4951694;27;100012;-66
2022/09/13 06:41:22;;;;;;;3.10;0.90;;;;;;;14.88;61.93;100117.56;4953718;27;97885;-65
2022/09/13 06:43:57;;;;;;;1.73;0.80;;;;;;;15.01;61.66;100114.00;4954663;27;98036;-65
2022/09/13 06:46:24;;;;;;;2.95;0.95;;;;;;;15.16;62.14;100119.09;4985731;27;98168;-66
2022/09/13 06:48:51;;;;;;;2.05;0.98;;;;;;;15.36;61.85;100111.59;4946456;27;98246;-65
2022/09/13 06:51:20;;;;;;;4.55;1.30;;;;;;;15.59;61.63;100113.22;4947374;27;100497;-65
2022/09/13 06:53:48;;;;;;;1.92;0.93;;;;;;;15.79;61.32;100105.72;4959275;27;99468;-66
2022/09/13 06:56:19;;;;;;;2.00;1.00;;;;;;;16.01;61.40;100110.31;4949577;27;98783;-73
2022/09/13 06:58:49;;;;;;;4.93;1.40;;;;;;;16.16;61.27;100113.44;4970237;27;100070;-74
2022/09/13 07:01:23;;;;;;;3.08;1.10;;;;;;;16.36;61.23;100108.56;4939181;27;98030;-73
2022/09/13 07:03:58;;;;;;;1.98;1.00;;;;;;;16.52;61.09;100112.47;4947475;27;97970;-73
2022/09/13 07:06:29;;;;;;;1.63;1.00;;;;;;;16.62;61.27;100112.19;4961338;27;98400;-74
2022/09/13 07:08:59;;;;;;;2.97;1.20;;;;;;;16.63;61.33;100115.69;4935307;27;98217;-74
2022/09/13 07:11:32;;;;;;;2.35;1.08;;;;;;;16.60;61.72;100113.59;4969146;27;97814;-74
2022/09/13 07:14:01;;;;;;;1.40;0.90;;;;;;;16.54;61.95;100114.84;4926207;27;97876;-75
2022/09/13 07:16:33;;;;;;;2.28;0.90;;;;;;;16.46;61.99;100116.41;4967075;27;98276;-74
2022/09/13 07:19:05;;;;;;;1.97;1.20;;;;;;;16.40;62.26;100118.50;4932725;27;98003;-75
2022/09/13 07:21:35;;;;;;;3.10;1.23;;;;;;;16.38;62.26;100114.47;4947814;27;98936;-75
2022/09/13 07:24:04;;;;;;;2.28;1.13;;;;;;;16.34;62.42;100116.22;4944506;27;97755;-75
2022/09/13 07:26:32;;;;;;;3.53;1.30;;;;;;;16.31;62.82;100117.66;4959304;27;98367;-75
2022/09/13 07:29:06;;;;;;;3.10;1.52;;;;;;;16.30;62.71;100115.25;4947300;27;98381;-75
2022/09/13 07:31:39;;;;;;;1.92;0.98;;;;;;;16.29;62.64;100113.66;4963866;27;99087;-75
2022/09/13 07:34:25;;;;;;;2.45;1.10;;;;;;;16.30;62.57;100118.75;4959763;27;98614;-75
2022/09/13 07:36:52;;;;;;;2.85;1.30;;;;;;;16.29;63.10;100122.59;4932927;27;97897;-76
2022/09/13 07:39:20;;;;;;;1.90;1.02;;;;;;;16.28;63.10;100120.22;4969549;27;98634;-75
2022/09/13 07:41:49;;;;;;;1.98;1.00;;;;;;;16.28;63.15;100125.66;4960961;27;98761;-76
2022/09/13 07:44:15;;;;;;;3.65;1.60;;;;;;;16.27;63.49;100122.13;4970740;27;97793;-66
2022/09/13 07:46:44;;;;;;;1.60;0.90;;;;;;;16.29;63.39;100136.19;4937895;27;98195;-66
2022/09/13 07:49:17;;;;;;;3.00;1.27;;;;;;;16.35;63.42;100139.59;4956359;27;98421;-66
2022/09/13 07:51:44;;;;;;;4.43;1.35;;;;;;;16.43;63.41;100144.28;4951264;27;98120;-66
2022/09/13 07:54:16;;;;;;;3.63;1.65;;;;;;;16.43;63.25;100155.94;4935856;27;98265;-66
2022/09/13 07:56:44;;;;;;;3.53;1.30;;;;;;;16.46;63.46;100149.06;4949591;27;99222;-66
2022/09/13 07:59:14;;;;;;;2.75;1.40;;;;;;;16.51;63.26;100159.03;4952462;27;98259;-67
2022/09/13 08:01:51;;;;;;;2.20;0.88;;;;;;;16.51;63.04;100148.94;4949947;27;98361;-67
2022/09/13 08:04:20;;;;;;;2.42;1.20;;;;;;;16.53;63.43;100146.69;4968151;27;98239;-66
2022/09/13 08:06:47;;;;;;;2.40;1.17;;;;;;;16.58;63.50;100140.31;4965758;27;97926;-66
2022/09/13 08:09:15;;;;;;;1.85;1.20;;;;;;;16.68;63.39;100143.56;4991795;27;98557;-66
2022/09/13 08:11:50;;;;;;;2.72;1.67;;;;;;;16.80;63.07;100134.81;4971801;27;99950;-66
2022/09/13 08:14:18;;;;;;;5.60;1.50;;;;;;;16.87;63.04;100131.63;4988939;27;98233;-66
2022/09/13 08:16:45;;;;;;;3.20;1.67;;;;;;;16.93;63.01;100122.19;4991392;27;98505;-67
2022/09/13 08:19:14;;;;;;;4.28;2.00;;;;;;;16.99;63.04;100114.69;4966699;27;100093;-66
2022/09/13 08:21:41;;;;;;;2.70;1.80;;;;;;;17.05;62.96;100106.00;4976576;27;100005;-66
2022/09/13 08:24:12;;;;;;;5.07;2.13;;;;;;;17.26;62.87;100119.03;4955935;27;98236;-66
2022/09/13 08:26:38;;;;;;;3.58;1.85;;;;;;;17.64;62.16;100113.69;4970845;27;97908;-66
2022/09/13 08:29:06;;;;;;;3.58;1.40;;;;;;;17.76;61.92;100124.75;4986969;27;97997;-66
2022/09/13 08:31:33;;;;;;;2.33;1.50;;;;;;;17.79;62.13;100126.06;5003069;27;98574;-66
2022/09/13 08:34:00;;;;;;;4.03;1.67;;;;;;;17.81;62.25;100116.44;5004862;27;98204;-66
2022/09/13 08:36:27;;;;;;;3.60;1.77;;;;;;;17.89;62.41;100117.53;4966349;27;98230;-66
2022/09/13 08:38:59;;;;;;;2.88;1.42;;;;;;;18.08;62.00;100100.81;4980283;27;97966;-75
2022/09/13 08:41:54;;;;;;;1.77;1.25;;;;;;;18.25;61.45;100106.19;4969463;27;99132;-75
2022/09/13 08:44:53;;;;;;;3.50;1.25;;;;;;;18.24;61.57;100104.59;4956894;27;98576;-75
2022/09/13 08:48:01;;;;;;;3.42;1.80;;;;;;;18.29;61.65;100098.97;4991666;27;98081;-66
2022/09/13 08:50:35;;;;;;;2.33;1.40;;;;;;;18.30;61.88;100092.38;4955430;28;97966;-66
2022/09/13 08:53:28;;;;;;;3.25;1.42;;;;;;;18.45;61.55;100095.69;4969697;27;100481;-66
2022/09/13 08:56:37;;;;;;;3.90;1.38;;;;;;;18.54;61.35;100085.50;4986360;27;98015;-66
2022/09/13 08:59:51;;;;;;;2.25;1.52;;;;;;;18.68;61.11;100086.06;4989794;27;97817;-76
2022/09/13 09:03:06;;;;;;;2.70;1.17;;;;;;;18.95;60.75;100089.47;4967779;27;100571;-75
2022/09/13 09:05:48;;;;;;;2.78;1.30;;;;;;;19.11;60.83;100094.00;4992195;27;98519;-75
2022/09/13 09:08:32;;;;;;;1.92;1.02;;;;;;;19.22;60.82;100086.22;5003605;27;97956;-74
2022/09/13 09:11:23;;;;;;;3.10;0.90;;;;;;;19.47;60.39;100091.78;4988372;27;97911;-75
2022/09/13 09:14:39;;;;;;;2.03;1.10;;;;;;;19.98;59.31;100084.19;5004951;27;98623;-75
2022/09/13 09:17:15;;;;;;;3.45;1.02;;;;;;;20.34;59.00;100089.69;4985662;27;97711;-75
2022/09/13 09:20:16;;;;;;;2.30;1.17;;;;;;;20.58;58.77;100077.97;4968061;27;99544;-76
2022/09/13 09:22:47;;;;;;;;;;;;;;;20.78;58.61;100086.41;4988472;27;97866;-76
2022/09/13 09:25:16;;;;;;;2.50;0.82;;;;;;;20.74;58.43;100090.97;4983202;27;98397;-76
2022/09/13 09:27:47;;;;;;;2.15;0.93;;;;;;;20.88;58.07;100087.88;4944938;27;98670;-76
2022/09/13 09:30:16;;;;;;;1.45;0.90;;;;;;;20.93;58.16;100082.94;4967428;27;97919;-76
2022/09/13 09:33:33;;;;;;;2.17;0.80;;;;;;;20.85;58.36;100089.34;4946020;27;97988;-76
2022/09/13 09:36:28;;;;;;;1.58;0.90;;;;;;;20.80;58.39;100095.06;4946403;28;98838;-75
2022/09/13 09:38:58;;;;;;;2.03;1.00;;;;;;;20.78;58.29;100092.66;4980018;27;98621;-75
2022/09/13 09:41:34;;;;;;;1.83;0.77;;;;;;;20.79;58.47;100083.31;4962343;27;97920;-75
2022/09/13 09:44:30;;;;;;;2.33;1.02;;;;;;;20.92;57.85;100083.31;4972651;27;97950;-75
2022/09/13 09:47:20;;;;;;;1.45;0.80;;;;;;;21.26;57.30;100085.50;4956877;27;98595;-76
2022/09/13 09:50:11;;;;;;;2.00;0.98;;;;;;;21.38;56.90;100070.16;4970598;27;98484;-76
2022/09/13 09:53:06;;;;;;;1.65;0.70;;;;;;;21.76;56.46;100064.94;4989042;27;98639;-76
2022/09/13 09:56:35;;;;;;;1.83;1.10;;;;;;;22.40;55.27;100059.47;5017465;27;98441;-76
2022/09/13 09:59:02;;;;;;;1.17;0.52;;;;;;;24.25;52.23;100048.63;4990222;27;98908;-67
2022/09/13 10:01:33;;;;;;;3.65;0.65;;;;;;;25.76;49.69;100057.66;4986065;27;98326;-76
2022/09/13 10:04:11;;;;;;;2.90;0.90;;;;;;;25.30;51.75;100060.72;4955991;27;98051;-76
2022/09/13 10:06:40;;;;;;;1.95;0.90;;;;;;;24.80;52.64;100062.03;4977044;27;98069;-67
2022/09/13 10:09:13;;;;;;;3.40;0.63;;;;;;;24.60;52.86;100058.59;4966760;27;98276;-76
2022/09/13 10:11:57;;;;;;;1.48;0.50;;;;;;;24.39;52.80;100046.09;4998937;27;97890;-76
2022/09/13 10:14:45;;;;;;;1.33;0.52;;;;;;;24.13;53.32;100046.03;4987963;27;98441;-67
2022/09/13 10:17:23;;;;;;;1.45;0.70;;;;;;;23.94;53.55;100056.00;4972524;27;97986;-67
2022/09/13 10:19:58;;;;;;;2.10;0.70;;;;;;;24.07;52.78;100039.28;4947705;27;98089;-76
2022/09/13 10:22:28;;;;;;;4.63;0.85;;;;;;;24.22;52.11;100041.09;4985975;27;98165;-76
2022/09/13 10:25:25;;;;;;;1.73;0.75;;;;;;;24.25;51.80;100043.13;4962024;27;97915;-76
2022/09/13 10:27:57;;;;;;;2.40;0.60;;;;;;;24.12;52.06;100033.47;4944228;27;98293;-67
2022/09/13 10:30:45;;;;;;;2.17;0.83;;;;;;;24.36;52.06;100027.53;4966480;27;98206;-76
2022/09/13 10:33:32;;;;;;;1.00;0.57;;;;;;;24.87;51.01;100016.06;4975176;27;97918;-76
2022/09/13 10:36:03;;;;;;;1.48;0.60;;;;;;;25.17;49.89;100015.28;4985179;27;100178;-67
2022/09/13 10:38:36;;;;;;;1.27;0.82;;;;;;;25.61;49.14;100007.06;4967275;27;97959;-76
2022/09/13 10:41:07;;;;;;;1.70;0.70;;;;;;;26.50;47.91;100018.06;5000013;27;98306;-75
2022/09/13 10:43:34;;;;;;;1.70;0.65;;;;;;;26.54;47.92;100018.88;4950277;27;99722;-67
2022/09/13 10:46:02;;;;;;;1.40;0.70;;;;;;;26.44;48.36;100017.59;4951383;27;98092;-67
2022/09/13 10:48:29;;;;;;;1.15;0.40;;;;;;;27.30;46.92;100014.47;4999558;27;98472;-67
2022/09/13 10:51:25;;;;;;;1.65;0.63;;;;;;;27.23;47.64;100004.16;4959704;27;98369;-76
2022/09/13 10:54:23;;;;;;;1.35;0.45;;;;;;;27.30;47.70;100001.44;4994427;27;98557;-76
2022/09/13 10:56:50;;;;;;;3.22;0.68;;;;;;;27.89;45.77;100010.22;4977991;27;99072;-68
2022/09/13 10:59:29;;;;;;;1.33;0.50;;;;;;;27.14;48.43;100009.28;4967542;27;98558;-68
2022/09/13 11:02:27;;;;;;;1.45;0.45;;;;;;;26.79;48.45;100005.19;4991614;27;98217;-76
2022/09/13 11:05:38;;;;;;;3.33;0.82;;;;;;;27.26;47.29;99999.84;4980348;27;97973;-67
2022/09/13 11:08:38;;;;;;;1.05;0.52;;;;;;;27.71;46.85;99994.78;4997007;27;97950;-67
2022/09/13 11:11:22;;;;;;;1.05;0.45;;;;;;;27.65;46.52;99992.38;4987847;27;98303;-67
2022/09/13 11:14:08;;;;;;;1.33;0.63;;;;;;;27.35;46.83;99995.53;4964894;27;98227;-67
2022/09/13 11:16:45;;;;;;;1.70;0.65;;;;;;;26.82;47.48;99998.88;4988587;27;97898;-68
2022/09/13 11:20:16;;;;;;;2.20;0.77;;;;;;;26.42;48.11;99997.06;4969436;27;118539;-76
2022/09/13 11:23:02;;;;;;;1.35;0.60;;;;;;;25.90;48.79;99993.56;4977104;28;98025;-76
2022/09/13 11:25:48;;;;;;;2.13;0.80;;;;;;;25.50;48.87;99988.81;4971471;27;98154;-76
2022/09/13 11:28:48;;;;;;;1.55;0.63;;;;;;;25.14;49.55;99986.47;4973150;27;98001;-75
2022/09/13 11:31:35;;;;;;;1.17;0.50;;;;;;;24.89;49.19;99985.38;4995276;27;99459;-75
2022/09/13 11:34:28;;;;;;;1.70;0.60;;;;;;;24.75;49.51;99983.22;5012690;27;98117;-67
2022/09/13 11:37:36;;;;;;;1.10;0.47;;;;;;;24.67;49.23;99982.34;4992539;27;97760;-75
2022/09/13 11:40:32;;;;;;;1.00;0.40;;;;;;;24.47;49.56;99981.69;4981713;27;97860;-67
2022/09/13 11:43:38;;;;;;;1.20;0.52;;;;;;;24.34;49.85;99982.28;4976960;27;98215;-75
2022/09/13 11:46:28;;;;;;;1.70;0.40;;;;;;;24.57;49.12;99979.47;4983594;27;98180;-75
2022/09/13 11:49:13;;;;;;;1.60;0.60;;;;;;;24.43;48.94;99967.09;5015640;27;98681;-75
2022/09/13 11:51:58;;;;;;;1.60;0.60;;;;;;;24.41;49.23;99960.38;4991393;27;98175;-76
2022/09/13 11:54:48;;;;;;;1.17;0.50;;;;;;;24.30;49.28;99960.19;4998375;27;98034;-75
2022/09/13 11:57:25;;;;;;;1.42;0.60;;;;;;;24.22;49.20;99958.50;4979720;27;97983;-67
2022/09/13 12:00:03;;;;;;;3.90;0.50;;;;;;;24.18;49.61;99952.94;4987370;27;97951;-67
2022/09/13 12:02:33;;;;;;;1.20;0.60;;;;;;;25.20;47.45;99951.91;4966225;27;98588;-75
2022/09/13 12:05:22;;;;;;;1.92;0.60;;;;;;;25.41;47.33;99956.03;4980558;27;99426;-75
2022/09/13 12:07:54;;;;;;;1.75;0.80;;;;;;;25.45;47.35;99951.34;4945700;27;98129;-75
2022/09/13 12:10:52;;;;;;;;;;;;;;;25.46;48.33;99952.91;4956949;27;98955;-75
2022/09/13 12:13:31;;;;;;;1.30;0.47;;;;;;;25.02;48.98;99944.56;4927829;27;98719;-75
2022/09/13 12:16:06;;;;;;;1.35;0.52;;;;;;;24.84;48.90;99938.88;4945309;27;98057;-75